Time;durP1;ratioP1;P1;durP2;ratioP2;P2;SDS_P1;SDS_P2;PMS_P1;PMS_P2;Temp;Humidity;BMP_temperature;BMP_pressure;BME280_temperature;BME280_humidity;BME280_pressure;Samples;Min_cycle;Max_cycle;Signal;HPM_P1;HPM_P2
2023/02/15 00:02:12;;;;;;;34.17;22.60;;;2.00;99.90;;;;;;2615642;54;20146;-71
2023/02/15 00:07:59;;;;;;;28.47;21.50;;;1.80;99.90;;;;;;2615563;54;20162;-72
2023/02/15 00:13:47;;;;;;;36.00;23.63;;;1.70;99.90;;;;;;2616070;39;20517;-71
2023/02/15 00:19:35;;;;;;;31.90;22.90;;;1.60;99.90;;;;;;2615241;54;20150;-71
2023/02/15 00:25:23;;;;;;;36.60;22.87;;;1.60;99.90;;;;;;2616030;39;20413;-70
2023/02/15 00:31:12;;;;;;;51.47;24.33;;;1.70;99.90;;;;;;2615286;54;20159;-71
2023/02/15 00:36:59;;;;;;;28.30;21.27;;;1.60;99.90;;;;;;2615571;54;20346;-71
2023/02/15 00:42:47;;;;;;;41.53;24.97;;;1.40;99.90;;;;;;2615397;54;20126;-71
2023/02/15 00:48:34;;;;;;;34.07;24.10;;;1.40;99.90;;;;;;2615652;54;20146;-71
2023/02/15 00:51:49;;;;;;;34.40;22.70;;;1.30;99.90;;;;;;2615152;54;20396;-71
2023/02/15 00:54:15;;;;;;;36.60;23.70;;;1.30;99.90;;;;;;2615320;54;20151;-71
2023/02/15 01:00:02;;;;;;;32.30;22.67;;;1.10;99.90;;;;;;2615020;54;20664;-70
2023/02/15 01:05:50;;;;;;;35.43;24.53;;;1.10;99.90;;;;;;2615380;54;20147;-70
2023/02/15 01:11:38;;;;;;;34.10;24.10;;;1.20;99.90;;;;;;2615151;54;20139;-72
2023/02/15 01:17:26;;;;;;;33.07;24.67;;;1.10;99.90;;;;;;2615415;54;20146;-70
2023/02/15 01:23:14;;;;;;;34.33;23.57;;;1.00;99.90;;;;;;2615069;54;20392;-72
2023/02/15 01:29:01;;;;;;;36.63;26.03;;;0.90;99.90;;;;;;2615195;54;20118;-71
2023/02/15 01:34:49;;;;;;;36.37;25.47;;;0.90;99.90;;;;;;2615208;54;20166;-71
2023/02/15 01:40:38;;;;;;;40.10;22.03;;;0.90;99.90;;;;;;2614965;54;20130;-71
2023/02/15 01:46:40;;;;;;;30.90;24.33;;;0.70;99.90;;;;;;2615094;54;20472;-71
2023/02/15 01:56:25;;;;;;;32.10;24.07;;;0.80;99.90;;;;;;2615167;54;20458;-70
2023/02/15 02:02:16;;;;;;;36.40;23.70;;;0.60;99.90;;;;;;2615576;54;20407;-69
2023/02/15 02:08:04;;;;;;;33.93;25.17;;;0.60;99.90;;;;;;2614741;54;20530;-70
2023/02/15 02:13:53;;;;;;;42.20;25.10;;;0.40;99.90;;;;;;2615327;54;20172;-69
2023/02/15 02:45:58;;;;;;;37.37;25.03;;;0.20;99.90;;;;;;2615046;54;20514;-70
2023/02/15 02:51:45;;;;;;;39.70;24.33;;;0.10;99.90;;;;;;2614861;54;20423;-69
2023/02/15 02:57:37;;;;;;;36.17;22.10;;;0.00;99.90;;;;;;2615207;39;20519;-70
2023/02/15 03:03:34;;;;;;;28.53;21.87;;;-0.10;99.90;;;;;;2615389;39;20831;-70
2023/02/15 03:28:33;;;;;;;35.30;24.43;;;-0.20;99.90;;;;;;2615990;54;20393;-72
2023/02/15 03:34:20;;;;;;;39.60;24.50;;;-0.20;99.90;;;;;;2615892;54;20288;-72
2023/02/15 04:03:09;;;;;;;38.37;26.23;;;-0.40;99.90;;;;;;2617009;39;20745;-72
2023/02/15 04:27:15;;;;;;;55.97;28.70;;;-0.50;99.90;;;;;;2615263;54;20411;-72
2023/02/15 04:33:03;;;;;;;41.70;29.97;;;-0.50;99.90;;;;;;2615606;54;20636;-72
2023/02/15 04:38:50;;;;;;;44.97;27.87;;;-0.50;99.90;;;;;;2614982;54;20118;-71
2023/02/15 04:44:37;;;;;;;38.53;26.87;;;-0.50;99.90;;;;;;2615220;54;20130;-73
2023/02/15 04:50:24;;;;;;;38.07;27.97;;;-0.70;99.90;;;;;;2616385;54;20241;-71
2023/02/15 04:56:49;;;;;;;44.57;29.30;;;-0.70;99.90;;;;;;2616508;54;20185;-72
2023/02/15 04:59:39;;;;;;;49.70;30.40;;;-0.70;99.90;;;;;;2615831;54;20398;-72
2023/02/15 05:05:27;;;;;;;42.17;26.07;;;-0.60;99.90;;;;;;2616543;54;20907;-73
2023/02/15 05:11:15;;;;;;;44.50;29.20;;;-0.70;99.90;;;;;;2616636;54;20239;-72
2023/02/15 05:17:03;;;;;;;41.80;29.60;;;-0.60;99.90;;;;;;2616603;54;20635;-72
2023/02/15 05:22:54;;;;;;;42.63;29.53;;;-0.80;99.90;;;;;;2616338;54;20126;-72
2023/02/15 05:28:41;;;;;;;52.03;31.93;;;-0.90;99.90;;;;;;2616311;54;20387;-71
2023/02/15 05:34:29;;;;;;;51.13;32.20;;;-0.70;99.90;;;;;;2616425;54;20612;-72
2023/02/15 05:40:17;;;;;;;46.77;30.27;;;-0.70;99.90;;;;;;2616605;54;20123;-72
2023/02/15 05:46:06;;;;;;;48.67;32.50;;;-0.80;99.90;;;;;;2616422;54;20155;-72
2023/02/15 05:51:53;;;;;;;52.57;32.73;;;-0.80;99.90;;;;;;2616420;39;20887;-73
2023/02/15 06:01:17;;;;;;;45.70;33.77;;;-0.80;99.90;;;;;;2616419;54;20422;-72
2023/02/15 06:07:04;;;;;;;53.67;32.83;;;-0.70;99.90;;;;;;2616651;39;20730;-71
2023/02/15 06:12:52;;;;;;;50.00;34.10;;;-0.90;99.90;;;;;;2616646;54;20154;-73
2023/02/15 06:18:40;;;;;;;54.20;34.20;;;-0.80;99.90;;;;;;2616271;54;20118;-72
2023/02/15 06:24:28;;;;;;;51.17;32.37;;;-0.80;99.90;;;;;;2616017;54;20158;-72
2023/02/15 06:30:16;;;;;;;53.67;33.27;;;-0.90;99.90;;;;;;2615973;54;20226;-72
2023/02/15 06:36:04;;;;;;;53.17;33.40;;;-1.00;99.90;;;;;;2616048;54;20166;-73
2023/02/15 06:41:51;;;;;;;53.57;34.80;;;-0.90;99.90;;;;;;2616098;54;20503;-72
2023/02/15 06:47:39;;;;;;;57.17;34.10;;;-0.80;99.90;;;;;;2616198;54;20146;-72
2023/02/15 06:53:27;;;;;;;58.43;34.30;;;-0.80;99.90;;;;;;2616351;54;20173;-72
2023/02/15 06:59:14;;;;;;;47.53;31.93;;;-0.70;99.90;;;;;;2615896;54;20193;-72
2023/02/15 07:08:43;;;;;;;49.23;34.70;;;-0.70;99.90;;;;;;2615604;54;20375;-72
2023/02/15 07:14:31;;;;;;;53.33;34.13;;;-0.60;99.90;;;;;;2616122;39;20601;-73
2023/02/15 07:20:22;;;;;;;51.53;32.70;;;-0.60;99.90;;;;;;2615787;54;21002;-73
2023/02/15 07:26:09;;;;;;;51.00;35.20;;;-0.30;99.90;;;;;;2615166;54;20370;-72
2023/02/15 07:31:55;;;;;;;47.33;31.13;;;0.20;99.90;;;;;;2615242;54;20238;-72
2023/02/15 07:37:43;;;;;;;48.93;31.70;;;1.20;99.90;;;;;;2616977;39;20605;-72
2023/02/15 07:43:33;;;;;;;50.20;34.50;;;3.40;99.90;;;;;;2616497;54;20122;-71
2023/02/15 07:49:21;;;;;;;47.17;31.90;;;4.90;99.90;;;;;;2616408;54;20390;-72
2023/02/15 07:55:12;;;;;;;41.20;30.90;;;5.90;99.90;;;;;;2616427;54;20203;-72
2023/02/15 07:58:09;;;;;;;38.73;30.20;;;6.10;99.90;;;;;;2616117;54;20427;-72
2023/02/15 08:00:56;;;;;;;38.90;30.17;;;6.40;99.90;;;;;;2615392;54;20434;-72
2023/02/15 08:06:42;;;;;;;34.13;30.10;;;7.10;99.90;;;;;;2616481;54;20423;-72
2023/02/15 08:12:29;;;;;;;34.73;30.97;;;7.80;94.80;;;;;;2616063;54;20150;-72
2023/02/15 08:18:17;;;;;;;38.40;34.33;;;8.60;77.20;;;;;;2616340;54;20231;-72
2023/02/15 08:24:06;;;;;;;33.87;30.63;;;9.20;59.60;;;;;;2616318;54;20874;-71
2023/02/15 08:29:53;;;;;;;38.63;34.43;;;9.60;49.60;;;;;;2615935;54;20407;-72
2023/02/15 08:35:41;;;;;;;37.90;34.27;;;9.60;53.60;;;;;;2616499;54;20219;-72
2023/02/15 08:41:37;;;;;;;38.13;34.40;;;11.00;48.30;;;;;;2615967;54;20371;-72
2023/02/15 08:47:25;;;;;;;36.13;32.83;;;12.60;29.60;;;;;;2615791;54;20404;-71
2023/02/15 08:53:12;;;;;;;34.07;31.17;;;13.70;21.80;;;;;;2615770;54;20119;-72
2023/02/15 09:02:41;;;;;;;32.53;29.73;;;13.30;9.60;;;;;;2615963;54;20362;-71
2023/02/15 09:08:28;;;;;;;33.03;30.03;;;14.50;5.50;;;;;;2615621;54;20404;-72
2023/02/15 09:14:20;;;;;;;36.70;31.50;;;13.80;2.40;;;;;;2615904;54;20143;-71
2023/02/15 09:20:08;;;;;;;32.17;29.13;;;13.20;2.10;;;;;;2615477;54;20535;-72
2023/02/15 09:25:56;;;;;;;31.43;28.33;;;14.90;1.00;;;;;;2616029;39;21057;-71
2023/02/15 09:31:46;;;;;;;31.83;28.80;;;14.80;1.00;;;;;;2615567;54;20150;-71
2023/02/15 09:37:34;;;;;;;32.80;29.60;;;15.00;1.00;;;;;;2616029;46;20430;-71
2023/02/15 10:10:04;;;;;;;34.10;30.47;;;16.70;1.00;;;;;;2614036;54;20395;-71
2023/02/15 10:29:00;;;;;;;30.90;28.30;;;18.10;1.00;;;;;;2615584;54;20375;-72
2023/02/15 10:34:54;;;;;;;30.37;27.57;;;19.00;1.00;;;;;;2615494;54;20383;-72
2023/02/15 10:40:56;;;;;;;32.87;30.00;;;19.30;1.00;;;;;;2615434;54;20367;-72
2023/02/15 10:53:23;;;;;;;31.50;28.43;;;17.70;1.00;;;;;;2615440;54;20355;-72
2023/02/15 11:02:41;;;;;;;30.60;27.87;;;17.00;1.00;;;;;;2615399;54;20383;-72
2023/02/15 11:08:34;;;;;;;28.37;25.80;;;19.20;1.00;;;;;;2615623;39;20762;-72
2023/02/15 11:14:27;;;;;;;27.90;25.50;;;20.60;1.00;;;;;;2615555;47;20903;-72
2023/02/15 11:26:51;;;;;;;29.90;27.17;;;19.60;1.00;;;;;;2615285;54;20411;-71
2023/02/15 11:32:43;;;;;;;28.30;25.87;;;20.60;1.00;;;;;;2615227;54;20351;-71
2023/02/15 11:38:34;;;;;;;27.70;25.10;;;20.20;1.00;;;;;;2615009;54;20358;-71
2023/02/15 11:44:27;;;;;;;24.93;22.77;;;20.90;1.00;;;;;;2615208;54;20412;-72
2023/02/15 11:50:21;;;;;;;27.33;25.20;;;20.80;1.00;;;;;;2616002;54;20414;-71
2023/02/15 11:56:16;;;;;;;25.70;23.20;;;19.40;1.00;;;;;;2616051;54;20359;-72
2023/02/15 12:08:43;;;;;;;24.20;22.20;;;20.10;1.00;;;;;;2615801;54;20407;-71
2023/02/15 12:21:16;;;;;;;25.37;23.10;;;19.30;1.00;;;;;;2616174;54;20402;-72
2023/02/15 12:27:26;;;;;;;27.13;24.50;;;19.10;1.00;;;;;;2615599;54;20415;-72
2023/02/15 12:39:54;;;;;;;21.57;19.87;;;18.60;1.00;;;;;;2615818;54;20379;-71
2023/02/15 12:45:41;;;;;;;24.50;22.53;;;20.20;1.00;;;;;;2616026;54;20391;-71
2023/02/15 12:51:29;;;;;;;24.07;22.10;;;19.50;1.00;;;;;;2616169;54;20126;-71
2023/02/15 12:54:34;;;;;;;25.83;23.53;;;21.50;1.00;;;;;;2615855;54;20416;-72
2023/02/15 13:00:18;;;;;;;26.63;24.10;;;20.80;1.00;;;;;;2615207;54;20439;-72
2023/02/15 13:02:51;;;;;;;25.97;23.87;;;21.60;1.00;;;;;;2616025;54;20520;-72
2023/02/15 13:14:55;;;;;;;26.93;24.43;;;21.90;1.00;;;;;;2616059;54;20962;-71
2023/02/15 13:20:45;;;;;;;26.10;23.90;;;21.30;1.00;;;;;;2615912;54;20528;-72
2023/02/15 13:26:34;;;;;;;24.13;22.20;;;19.60;1.00;;;;;;2615974;39;20472;-72
2023/02/15 13:32:36;;;;;;;26.17;24.07;;;21.20;1.00;;;;;;2616358;39;20876;-72
2023/02/15 13:58:58;;;;;;;25.80;23.70;;;21.20;1.00;;;;;;2614042;54;20437;-72
2023/02/15 14:08:18;;;;;;;26.30;23.60;;;20.50;1.00;;;;;;2613952;54;20370;-72
2023/02/15 14:24:44;;;;;;;25.53;23.23;;;22.70;1.00;;;;;;2613869;54;20423;-72
2023/02/15 14:30:38;;;;;;;25.23;23.00;;;21.70;1.00;;;;;;2615834;39;20790;-72
2023/02/15 14:36:29;;;;;;;24.53;22.40;;;20.60;1.00;;;;;;2615333;54;20355;-71
2023/02/15 15:11:28;;;;;;;24.77;22.47;;;16.60;1.00;;;;;;2614990;54;20410;-72
2023/02/15 15:17:36;;;;;;;26.40;23.90;;;16.20;1.00;;;;;;2615085;54;20659;-71
2023/02/15 15:23:42;;;;;;;23.30;21.07;;;16.10;1.00;;;;;;2616140;54;21017;-72
2023/02/15 15:29:40;;;;;;;24.23;21.77;;;15.70;1.00;;;;;;2616546;39;20761;-72
2023/02/15 15:42:18;;;;;;;24.27;22.17;;;15.30;1.00;;;;;;2616184;54;20422;-72
2023/02/15 15:59:02;;;;;;;24.63;22.47;;;14.00;1.00;;;;;;2615837;54;20382;-72
2023/02/15 16:04:49;;;;;;;24.90;22.30;;;13.70;1.00;;;;;;2615848;54;20375;-72
2023/02/15 16:13:59;;;;;;;26.73;23.93;;;13.10;1.00;;;;;;2615864;54;20427;-73
2023/02/15 16:19:47;;;;;;;26.23;24.03;;;12.70;1.00;;;;;;2615765;54;20379;-72
2023/02/15 16:32:18;;;;;;;26.50;23.93;;;12.00;1.00;;;;;;2616077;46;20463;-71
2023/02/15 16:38:09;;;;;;;31.50;24.70;;;11.40;6.60;;;;;;2615650;54;20471;-72
2023/02/15 16:44:03;;;;;;;28.47;25.70;;;11.00;9.50;;;;;;2615784;54;20399;-72
2023/02/15 16:49:54;;;;;;;26.80;24.40;;;11.00;7.70;;;;;;2615861;54;20460;-72
2023/02/15 16:55:42;;;;;;;28.40;25.23;;;10.70;11.40;;;;;;2615931;54;20362;-71
2023/02/15 17:01:32;;;;;;;28.50;25.57;;;10.40;15.20;;;;;;2616098;54;20419;-72
2023/02/15 17:07:20;;;;;;;30.00;27.20;;;10.30;18.50;;;;;;2615911;54;21012;-72
2023/02/15 17:16:34;;;;;;;27.20;24.07;;;10.20;20.00;;;;;;2616210;54;20471;-72
2023/02/15 17:22:30;;;;;;;28.30;25.40;;;9.90;23.90;;;;;;2615953;54;20351;-72
2023/02/15 17:41:39;;;;;;;36.33;30.50;;;8.90;64.60;;;;;;2614516;54;20375;-73
2023/02/15 17:47:46;;;;;;;33.43;29.83;;;8.70;87.50;;;;;;2614228;54;20425;-72
2023/02/15 17:53:34;;;;;;;38.97;29.63;;;8.60;93.90;;;;;;2614639;54;20482;-73
2023/02/15 17:59:22;;;;;;;31.43;28.47;;;8.40;99.90;;;;;;2614308;54;20126;-72
2023/02/15 18:28:22;;;;;;;28.33;24.40;;;8.80;98.90;;;;;;2614131;54;20390;-72
2023/02/15 18:40:44;;;;;;;25.47;22.97;;;9.10;85.60;;;;;;2614327;54;20379;-72
2023/02/15 18:46:31;;;;;;;27.33;24.70;;;8.90;90.60;;;;;;2614312;54;20173;-72
2023/02/15 18:52:21;;;;;;;27.63;24.23;;;9.00;90.10;;;;;;2614360;54;20130;-72
2023/02/15 18:55:25;;;;;;;27.60;24.90;;;9.00;87.20;;;;;;2614236;54;20382;-73
2023/02/15 18:57:52;;;;;;;29.73;26.70;;;9.00;83.50;;;;;;2614713;54;20411;-73
2023/02/15 19:03:40;;;;;;;27.80;25.20;;;9.00;78.60;;;;;;2615558;54;20379;-72
2023/02/15 19:09:28;;;;;;;29.50;26.70;;;8.90;81.40;;;;;;2616335;54;20178;-72
2023/02/15 19:12:00;;;;;;;27.23;24.33;;;8.90;81.90;;;;;;2615960;54;20439;-71
2023/02/15 19:14:29;;;;;;;26.70;23.90;;;8.80;85.10;;;;;;2615993;46;20423;-72
2023/02/15 19:20:23;;;;;;;29.93;26.83;;;8.90;82.40;;;;;;2616590;54;20398;-73
2023/02/15 19:26:11;;;;;;;30.17;27.20;;;8.80;86.00;;;;;;2616526;46;20440;-72
2023/02/15 19:31:59;;;;;;;30.13;27.00;;;8.70;87.60;;;;;;2616526;54;20233;-72
2023/02/15 19:37:50;;;;;;;28.67;25.80;;;8.40;93.40;;;;;;2616341;54;20141;-72
2023/02/15 19:43:37;;;;;;;30.67;27.10;;;8.30;95.80;;;;;;2616690;54;20487;-71
2023/02/15 19:49:25;;;;;;;30.70;27.60;;;8.20;99.90;;;;;;2616676;54;20150;-72
2023/02/15 19:55:21;;;;;;;29.87;26.77;;;8.10;99.90;;;;;;2616548;54;20146;-72
2023/02/15 20:01:08;;;;;;;30.13;27.30;;;8.10;99.90;;;;;;2616547;54;20351;-72
2023/02/15 20:06:58;;;;;;;29.27;26.33;;;8.10;99.90;;;;;;2616441;54;20160;-72
2023/02/15 20:16:32;;;;;;;29.83;26.53;;;8.20;99.90;;;;;;2616717;54;20427;-72
2023/02/15 20:22:23;;;;;;;28.50;25.60;;;8.10;99.90;;;;;;2616284;54;20387;-73
2023/02/15 20:28:23;;;;;;;30.27;26.97;;;7.80;99.90;;;;;;2616885;39;21017;-72
2023/02/15 20:34:11;;;;;;;40.87;35.10;;;7.70;99.90;;;;;;2616382;54;20411;-72
2023/02/15 20:39:59;;;;;;;39.90;32.87;;;7.10;99.90;;;;;;2616375;54;20154;-72
2023/02/15 20:45:47;;;;;;;38.10;32.30;;;6.60;99.90;;;;;;2616559;54;20146;-72
2023/02/15 20:51:35;;;;;;;37.63;30.80;;;6.60;99.90;;;;;;2616497;54;20182;-73
2023/02/15 20:57:23;;;;;;;43.80;32.13;;;6.20;99.90;;;;;;2616787;39;20696;-72
2023/02/15 21:03:12;;;;;;;45.70;36.00;;;6.00;99.90;;;;;;2616538;54;20118;-73
2023/02/15 21:09:00;;;;;;;43.37;34.37;;;5.70;99.90;;;;;;2616705;54;20362;-73
2023/02/15 21:12:01;;;;;;;48.17;33.47;;;5.80;99.90;;;;;;2615844;47;20503;-73
2023/02/15 21:14:27;;;;;;;37.87;29.97;;;5.80;99.90;;;;;;2616370;54;20186;-72
2023/02/15 21:20:15;;;;;;;40.27;30.83;;;5.60;99.90;;;;;;2616352;54;20395;-72
2023/02/15 21:26:03;;;;;;;43.00;33.90;;;5.40;99.90;;;;;;2616702;54;20134;-73
2023/02/15 21:31:51;;;;;;;39.70;31.80;;;5.30;99.90;;;;;;2616190;54;20259;-73
2023/02/15 21:37:40;;;;;;;45.20;34.07;;;5.10;99.90;;;;;;2616071;54;20378;-73
2023/02/15 21:49:34;;;;;;;39.77;30.33;;;5.00;99.90;;;;;;2616341;54;20378;-73
2023/02/15 21:55:22;;;;;;;37.10;30.40;;;4.90;99.90;;;;;;2616725;39;20539;-72
2023/02/15 22:01:23;;;;;;;37.07;30.10;;;4.70;99.90;;;;;;2616341;54;20146;-73
2023/02/15 22:07:17;;;;;;;35.40;28.50;;;4.80;99.90;;;;;;2616172;54;21000;-71
2023/02/15 22:16:29;;;;;;;35.07;28.00;;;5.30;99.90;;;;;;2616671;39;20753;-73
2023/02/15 22:22:17;;;;;;;35.97;29.63;;;5.20;99.90;;;;;;2616155;54;20386;-72
2023/02/15 22:28:15;;;;;;;40.03;29.40;;;4.60;99.90;;;;;;2616138;54;20176;-72
2023/02/15 22:34:03;;;;;;;40.77;29.30;;;4.90;99.90;;;;;;2616339;39;20835;-72
2023/02/15 22:39:50;;;;;;;35.60;28.50;;;4.70;99.90;;;;;;2616058;46;20177;-72
2023/02/15 22:45:38;;;;;;;32.27;26.40;;;4.80;99.90;;;;;;2616139;54;20114;-72
2023/02/15 22:51:28;;;;;;;37.63;28.03;;;4.80;99.90;;;;;;2616117;54;20126;-72
2023/02/15 23:03:32;;;;;;;37.90;29.10;;;4.80;99.90;;;;;;2615987;54;20369;-72
2023/02/15 23:09:20;;;;;;;41.00;27.60;;;4.80;99.90;;;;;;2615947;54;20370;-72
2023/02/15 23:12:00;;;;;;;37.23;28.33;;;5.40;99.90;;;;;;2615444;47;21369;-72
2023/02/15 23:14:31;;;;;;;33.13;26.70;;;5.10;99.90;;;;;;2615259;47;20430;-72
2023/02/15 23:20:19;;;;;;;36.17;28.30;;;5.40;99.90;;;;;;2616110;54;20422;-72
2023/02/15 23:32:40;;;;;;;37.37;28.73;;;4.80;99.90;;;;;;2614429;54;20392;-72
2023/02/15 23:38:29;;;;;;;33.10;27.30;;;4.50;99.90;;;;;;2614329;54;20122;-71
2023/02/15 23:44:17;;;;;;;37.03;27.80;;;4.30;99.90;;;;;;2614875;54;20423;-71
2023/02/15 23:56:39;;;;;;;41.63;29.83;;;4.10;99.90;;;;;;2615117;54;20391;-73
